createdAt,value
2022-11-13T00:01:26.416Z,60.01
2022-11-13T00:04:12.878Z,60.28
2022-11-13T00:06:59.628Z,60.00
2022-11-13T00:09:45.413Z,60.20
2022-11-13T00:12:31.291Z,60.10
2022-11-13T00:15:16.790Z,60.04
2022-11-13T00:18:03.422Z,59.64
2022-11-13T00:20:48.951Z,59.78
2022-11-13T00:23:35.816Z,59.84
2022-11-13T00:26:28.329Z,59.80
2022-11-13T00:29:14.022Z,60.05
2022-11-13T00:32:00.231Z,59.75
2022-11-13T00:34:48.375Z,59.83
2022-11-13T00:37:34.370Z,60.26
2022-11-13T00:40:20.180Z,60.62
2022-11-13T00:43:05.480Z,60.69
2022-11-13T00:45:50.953Z,61.03
2022-11-13T00:48:37.021Z,61.35
2022-11-13T00:51:23.080Z,61.46
2022-11-13T00:54:08.433Z,61.84
2022-11-13T00:56:53.850Z,62.19
2022-11-13T00:59:39.270Z,61.98
2022-11-13T01:02:24.591Z,62.12
2022-11-13T01:05:10.234Z,62.35
2022-11-13T01:07:56.070Z,61.85
2022-11-13T01:10:51.867Z,61.89
2022-11-13T01:13:40.732Z,61.93
2022-11-13T01:16:28.420Z,62.08
2022-11-13T01:19:14.451Z,62.62
2022-11-13T01:22:00.180Z,62.47
2022-11-13T01:24:45.706Z,62.72
2022-11-13T01:27:31.998Z,62.45
2022-11-13T01:30:17.668Z,62.20
2022-11-13T01:33:03.331Z,62.26
2022-11-13T01:35:48.870Z,62.76
2022-11-13T01:38:36.826Z,62.51
2022-11-13T01:41:32.002Z,63.44
2022-11-13T01:44:19.290Z,63.18
2022-11-13T01:47:05.330Z,63.19
2022-11-13T01:49:57.529Z,63.02
2022-11-13T01:52:43.391Z,62.57
2022-11-13T01:55:29.690Z,62.30
2022-11-13T01:58:16.661Z,62.43
2022-11-13T02:01:03.071Z,62.39
2022-11-13T02:03:48.602Z,62.34
2022-11-13T02:06:42.883Z,62.18
2022-11-13T02:09:33.821Z,62.23
2022-11-13T02:12:25.671Z,62.44
2022-11-13T02:15:11.419Z,62.33
2022-11-13T02:18:00.173Z,62.02
2022-11-13T02:21:01.111Z,61.80
2022-11-13T02:24:20.830Z,61.50
2022-11-13T02:27:11.194Z,62.38
2022-11-13T02:29:56.712Z,62.57
2022-11-13T02:32:47.770Z,63.08
2022-11-13T02:35:37.931Z,63.72
2022-11-13T02:38:24.070Z,63.22
2022-11-13T02:41:09.632Z,63.47
2022-11-13T02:43:55.270Z,63.93
2022-11-13T02:46:40.672Z,63.39
2022-11-13T02:49:26.435Z,63.93
2022-11-13T02:52:12.273Z,63.30
2022-11-13T02:54:57.855Z,63.53
2022-11-13T02:57:43.474Z,63.54
2022-11-13T03:00:28.973Z,63.73
2022-11-13T03:03:21.218Z,63.71
2022-11-13T03:06:14.852Z,64.41
2022-11-13T03:09:00.671Z,64.14
2022-11-13T03:11:46.112Z,63.86
2022-11-13T03:14:31.991Z,63.64
2022-11-13T03:17:17.970Z,63.46
2022-11-13T03:20:05.051Z,63.71
2022-11-13T03:22:50.951Z,63.94
2022-11-13T03:25:36.614Z,63.85
2022-11-13T03:28:22.111Z,64.32
2022-11-13T03:31:08.391Z,64.14
2022-11-13T03:33:54.391Z,63.84
2022-11-13T03:36:40.271Z,63.91
2022-11-13T03:39:25.931Z,64.30
2022-11-13T03:42:11.550Z,64.15
2022-11-13T03:44:57.239Z,64.37
2022-11-13T03:47:43.010Z,64.03
2022-11-13T03:50:29.311Z,64.14
2022-11-13T03:53:15.371Z,63.51
2022-11-13T03:56:01.590Z,63.62
2022-11-13T03:58:49.697Z,63.55
2022-11-13T04:01:35.459Z,63.78
2022-11-13T04:04:21.030Z,63.82
2022-11-13T04:07:06.627Z,64.26
2022-11-13T04:09:52.071Z,64.04
2022-11-13T04:12:37.570Z,64.25
2022-11-13T04:15:23.491Z,64.21
2022-11-13T04:18:09.113Z,64.31
2022-11-13T04:21:00.273Z,64.32
2022-11-13T04:23:46.031Z,64.90
2022-11-13T04:26:31.409Z,65.40
2022-11-13T04:29:17.031Z,65.55
2022-11-13T04:32:02.851Z,65.01
2022-11-13T04:34:48.211Z,65.07
2022-11-13T04:37:33.821Z,64.24
2022-11-13T04:40:19.171Z,64.20
2022-11-13T04:43:05.051Z,64.15
2022-11-13T04:45:53.137Z,64.24
2022-11-13T04:48:38.531Z,63.87
2022-11-13T04:51:24.429Z,64.08
2022-11-13T04:54:10.150Z,63.71
2022-11-13T04:56:55.972Z,63.40
2022-11-13T04:59:41.949Z,63.77
2022-11-13T05:02:27.897Z,64.09
2022-11-13T05:05:13.509Z,64.17
2022-11-13T05:07:59.370Z,64.14
2022-11-13T05:10:44.829Z,64.19
2022-11-13T05:13:35.108Z,64.01
2022-11-13T05:16:20.590Z,63.45
2022-11-13T05:19:07.293Z,63.60
2022-11-13T05:21:53.446Z,63.82
2022-11-13T05:24:39.129Z,64.04
2022-11-13T05:27:25.368Z,64.32
2022-11-13T05:30:11.368Z,64.43
2022-11-13T05:32:56.966Z,64.36
2022-11-13T05:35:42.731Z,64.38
2022-11-13T05:38:29.677Z,64.89
2022-11-13T05:41:21.849Z,64.68
2022-11-13T05:44:07.886Z,65.27
2022-11-13T05:46:53.446Z,65.42
2022-11-13T05:49:39.414Z,66.18
2022-11-13T05:52:24.885Z,65.94
2022-11-13T05:55:10.856Z,66.39
2022-11-13T05:57:58.927Z,66.54
2022-11-13T06:00:44.606Z,66.10
2022-11-13T06:03:30.614Z,66.13
2022-11-13T06:06:19.249Z,65.94
2022-11-13T06:09:06.289Z,65.78
2022-11-13T06:11:51.927Z,65.67
2022-11-13T06:14:37.446Z,65.84
2022-11-13T06:17:23.247Z,66.28
2022-11-13T06:20:09.687Z,66.70
2022-11-13T06:22:55.327Z,66.29
2022-11-13T06:25:41.255Z,66.13
2022-11-13T06:28:27.634Z,66.15
2022-11-13T06:31:16.085Z,66.21
2022-11-13T06:34:02.215Z,66.56
2022-11-13T06:36:48.328Z,66.89
2022-11-13T06:39:34.167Z,67.04
2022-11-13T06:42:20.171Z,67.09
2022-11-13T06:45:06.569Z,67.14
2022-11-13T06:47:54.046Z,67.58
2022-11-13T06:50:40.379Z,67.27
2022-11-13T06:53:28.772Z,66.92
2022-11-13T06:56:14.408Z,66.81
2022-11-13T06:59:00.388Z,66.59
2022-11-13T07:01:46.128Z,66.42
2022-11-13T07:04:31.933Z,66.66
2022-11-13T07:07:17.805Z,66.38
2022-11-13T07:10:03.898Z,66.22
2022-11-13T07:12:53.578Z,66.27
2022-11-13T07:15:40.606Z,65.77
2022-11-13T07:18:26.626Z,65.68
2022-11-13T07:21:13.894Z,66.00
2022-11-13T07:23:59.807Z,66.19
2022-11-13T07:26:45.446Z,66.70
2022-11-13T07:29:31.095Z,66.75
2022-11-13T07:32:16.978Z,66.37
2022-11-13T07:35:02.530Z,65.82
2022-11-13T07:37:48.487Z,65.51
2022-11-13T07:40:34.368Z,65.04
2022-11-13T07:43:20.289Z,65.28
2022-11-13T07:46:06.088Z,65.14
2022-11-13T07:48:51.888Z,64.71
2022-11-13T07:51:37.814Z,64.36
2022-11-13T07:54:23.732Z,63.96
2022-11-13T07:57:10.166Z,64.16
2022-11-13T07:59:55.650Z,64.48
2022-11-13T08:02:41.416Z,64.31
2022-11-13T08:05:27.168Z,64.32
2022-11-13T08:08:14.489Z,64.20
2022-11-13T08:11:04.528Z,63.62
2022-11-13T08:13:50.408Z,63.49
2022-11-13T08:16:36.369Z,63.51
2022-11-13T08:19:22.169Z,63.41
2022-11-13T08:22:07.928Z,63.27
2022-11-13T08:24:54.168Z,63.13
2022-11-13T08:27:39.893Z,63.14
2022-11-13T08:30:27.310Z,63.16
2022-11-13T08:33:13.255Z,63.25
2022-11-13T08:36:00.369Z,63.16
2022-11-13T08:38:48.450Z,63.05
2022-11-13T08:41:33.888Z,63.05
2022-11-13T08:44:19.491Z,63.44
2022-11-13T08:47:05.449Z,63.03
2022-11-13T08:49:51.128Z,62.86
2022-11-13T08:52:37.176Z,62.80
2022-11-13T08:55:22.770Z,62.55
2022-11-13T08:58:09.447Z,62.74
2022-11-13T09:01:00.911Z,61.59
2022-11-13T09:03:49.237Z,61.48
2022-11-13T09:06:35.410Z,61.65
2022-11-13T09:09:22.209Z,61.38
2022-11-13T09:12:08.173Z,60.99
2022-11-13T09:14:54.010Z,61.24
2022-11-13T09:17:39.615Z,60.14
2022-11-13T09:20:27.066Z,60.17
2022-11-13T09:23:13.128Z,59.23
2022-11-13T09:26:03.010Z,58.73
2022-11-13T09:28:49.210Z,58.58
2022-11-13T09:31:34.889Z,57.16
2022-11-13T09:34:21.287Z,56.34
2022-11-13T09:37:06.809Z,55.54
2022-11-13T09:39:52.687Z,55.57
2022-11-13T09:42:40.647Z,55.28
2022-11-13T09:45:26.290Z,54.84
2022-11-13T09:48:34.968Z,53.65
2022-11-13T09:51:30.967Z,53.76
2022-11-13T09:54:17.572Z,53.27
2022-11-13T09:57:25.733Z,52.41
2022-11-13T10:00:14.847Z,51.45
2022-11-13T10:03:03.887Z,50.84
2022-11-13T10:06:18.767Z,50.53
2022-11-13T10:09:11.568Z,50.20
2022-11-13T10:12:03.493Z,50.00
2022-11-13T10:14:54.248Z,49.00
2022-11-13T10:17:46.607Z,47.79
2022-11-13T10:20:35.287Z,48.33
2022-11-13T10:23:24.971Z,46.81
2022-11-13T10:26:19.689Z,46.81
2022-11-13T10:29:20.007Z,46.96
2022-11-13T10:32:22.251Z,45.64
2022-11-13T10:35:07.889Z,45.32
2022-11-13T10:38:08.679Z,44.96
2022-11-13T10:41:10.249Z,45.10
2022-11-13T10:44:26.219Z,43.61
2022-11-13T10:47:15.211Z,43.54
2022-11-13T10:50:12.851Z,43.15
2022-11-13T10:52:59.129Z,40.97
2022-11-13T10:55:45.856Z,41.77
2022-11-13T10:58:32.133Z,41.66
2022-11-13T11:01:24.339Z,40.98
2022-11-13T11:04:30.335Z,40.74
2022-11-13T11:07:22.115Z,40.97
2022-11-13T11:10:36.888Z,39.81
2022-11-13T11:13:24.054Z,40.24
2022-11-13T11:16:15.172Z,40.09
2022-11-13T11:19:05.048Z,39.95
2022-11-13T11:21:59.051Z,39.18
2022-11-13T11:25:14.776Z,39.95
2022-11-13T11:28:39.016Z,38.44
2022-11-13T11:31:31.172Z,37.67
2022-11-13T11:34:25.413Z,37.48
2022-11-13T11:37:25.369Z,37.54
2022-11-13T11:40:27.410Z,38.25
2022-11-13T11:43:28.170Z,38.17
2022-11-13T11:46:15.450Z,37.28
2022-11-13T11:49:02.053Z,37.42
2022-11-13T11:52:26.571Z,37.10
2022-11-13T11:55:33.569Z,38.35
2022-11-13T11:58:28.736Z,39.17
2022-11-13T12:13:33.010Z,42.41
2022-11-13T12:16:33.769Z,41.75
2022-11-13T12:20:01.410Z,41.45
2022-11-13T12:23:02.770Z,40.83
2022-11-13T12:26:00.171Z,38.99
2022-11-13T12:28:58.817Z,37.64
2022-11-13T12:32:08.087Z,36.13
2022-11-13T12:35:01.977Z,35.20
2022-11-13T12:37:58.767Z,32.36
2022-11-13T12:40:53.586Z,32.27
2022-11-13T12:44:06.927Z,32.42
2022-11-13T12:46:54.593Z,29.90
2022-11-13T12:49:40.211Z,29.14
2022-11-13T12:52:25.889Z,28.98
2022-11-13T12:55:35.056Z,28.27
2022-11-13T12:58:30.050Z,27.86
2022-11-13T13:01:19.044Z,28.05
2022-11-13T13:04:26.527Z,28.52
2022-11-13T13:07:23.263Z,27.65
2022-11-13T13:10:18.448Z,27.71
2022-11-13T13:13:24.508Z,27.02
2022-11-13T13:16:11.527Z,26.54
2022-11-13T13:19:28.893Z,25.66
2022-11-13T13:22:29.169Z,25.90
2022-11-13T13:25:33.127Z,25.16
2022-11-13T13:28:24.414Z,24.87
2022-11-13T13:31:42.288Z,25.52
2022-11-13T13:34:34.906Z,26.41
2022-11-13T13:37:41.205Z,28.62
2022-11-13T13:40:33.965Z,28.84
2022-11-13T13:43:52.608Z,30.98
2022-11-13T13:46:38.424Z,32.81
2022-11-13T13:49:25.647Z,34.13
2022-11-13T13:52:16.375Z,35.34
2022-11-13T13:55:07.806Z,37.65
2022-11-13T13:57:53.690Z,37.96
2022-11-13T14:00:58.979Z,38.73
2022-11-13T14:03:45.212Z,39.82
2022-11-13T14:06:31.568Z,40.17
2022-11-13T14:09:35.377Z,41.50
2022-11-13T14:12:23.647Z,42.50
2022-11-13T14:15:30.932Z,43.42
2022-11-13T14:18:18.263Z,42.96
2022-11-13T14:21:17.808Z,43.59
2022-11-13T14:24:05.007Z,44.55
2022-11-13T14:26:54.769Z,44.66
2022-11-13T14:29:55.728Z,46.12
2022-11-13T14:32:46.775Z,47.35
2022-11-13T14:35:32.927Z,47.49
2022-11-13T14:38:26.496Z,48.13
2022-11-13T14:41:37.249Z,48.93
2022-11-13T14:44:32.333Z,49.34
2022-11-13T14:47:30.408Z,49.52
2022-11-13T14:50:23.570Z,49.57
2022-11-13T14:53:10.968Z,49.93
2022-11-13T14:56:09.531Z,50.16
2022-11-13T14:58:55.370Z,49.97
2022-11-13T15:01:41.702Z,50.49
2022-11-13T15:04:28.778Z,50.49
2022-11-13T15:07:32.878Z,51.46
2022-11-13T15:10:21.811Z,51.50
2022-11-13T15:13:15.810Z,51.22
2022-11-13T15:16:01.447Z,51.64
2022-11-13T15:18:51.009Z,51.57
2022-11-13T15:21:36.934Z,51.89
2022-11-13T15:24:22.933Z,51.89
2022-11-13T15:27:15.367Z,52.41
2022-11-13T15:30:00.972Z,52.43
2022-11-13T15:32:47.328Z,52.59
2022-11-13T15:35:33.409Z,52.80
2022-11-13T15:38:19.252Z,52.86
2022-11-13T15:41:14.810Z,52.92
2022-11-13T15:44:02.569Z,53.47
2022-11-13T15:46:48.168Z,53.28
2022-11-13T15:49:33.969Z,53.74
2022-11-13T15:52:20.786Z,53.57
2022-11-13T15:55:35.847Z,54.21
2022-11-13T15:58:21.648Z,54.05
2022-11-13T16:01:09.580Z,54.17
2022-11-13T16:03:58.448Z,53.82
2022-11-13T16:06:44.838Z,54.77
2022-11-13T16:09:31.289Z,54.64
2022-11-13T16:12:17.368Z,54.53
2022-11-13T16:15:03.328Z,54.52
2022-11-13T16:17:53.890Z,54.84
2022-11-13T16:20:39.650Z,54.73
2022-11-13T16:23:25.481Z,54.84
2022-11-13T16:26:24.168Z,54.81
2022-11-13T16:29:21.568Z,55.26
2022-11-13T16:32:15.020Z,55.41
2022-11-13T16:35:00.967Z,55.20
2022-11-13T16:37:47.454Z,55.52
2022-11-13T16:40:33.448Z,55.75
2022-11-13T16:43:19.446Z,55.28
2022-11-13T16:46:30.543Z,55.87
2022-11-13T16:49:19.687Z,55.50
2022-11-13T16:52:05.250Z,55.73
2022-11-13T16:54:51.806Z,56.00
2022-11-13T16:57:38.139Z,56.16
2022-11-13T17:00:27.657Z,55.79
2022-11-13T17:03:13.210Z,56.16
2022-11-13T17:05:59.008Z,56.60
2022-11-13T17:08:44.966Z,57.04
2022-11-13T17:11:32.448Z,56.86
2022-11-13T17:14:18.336Z,56.74
2022-11-13T17:17:10.422Z,56.93
2022-11-13T17:19:58.374Z,57.03
2022-11-13T17:22:56.468Z,57.24
2022-11-13T17:25:46.127Z,57.38
2022-11-13T17:28:36.902Z,57.59
2022-11-13T17:31:23.675Z,57.59
2022-11-13T17:34:09.338Z,57.50
2022-11-13T17:36:55.258Z,57.66
2022-11-13T17:39:40.971Z,57.14
2022-11-13T17:42:29.268Z,57.22
2022-11-13T17:45:14.771Z,57.70
2022-11-13T17:48:00.407Z,57.34
2022-11-13T17:50:57.009Z,57.50
2022-11-13T17:53:43.174Z,57.57
2022-11-13T17:56:28.776Z,57.78
2022-11-13T17:59:14.527Z,57.65
2022-11-13T18:02:00.794Z,58.16
2022-11-13T18:04:46.375Z,58.44
2022-11-13T18:07:32.848Z,58.50
2022-11-13T18:10:19.256Z,58.59
2022-11-13T18:13:06.250Z,59.27
2022-11-13T18:15:51.977Z,58.78
2022-11-13T18:18:37.575Z,58.76
2022-11-13T18:21:26.568Z,58.68
2022-11-13T18:24:18.250Z,58.68
2022-11-13T18:27:06.671Z,58.64
2022-11-13T18:29:56.368Z,58.76
2022-11-13T18:32:42.623Z,59.12
2022-11-13T18:35:28.540Z,59.06
2022-11-13T18:38:14.768Z,59.64
2022-11-13T18:41:05.451Z,59.03
2022-11-13T18:43:52.374Z,58.49
2022-11-13T18:46:38.209Z,58.83
2022-11-13T18:49:24.135Z,58.94
2022-11-13T18:52:10.168Z,59.05
2022-11-13T18:54:55.857Z,58.80
2022-11-13T18:57:42.665Z,58.59
2022-11-13T19:00:28.455Z,58.85
2022-11-13T19:03:14.451Z,58.50
2022-11-13T19:06:00.169Z,59.16
2022-11-13T19:08:47.090Z,58.98
2022-11-13T19:11:33.408Z,59.47
2022-11-13T19:14:20.370Z,59.75
2022-11-13T19:17:05.974Z,59.18
2022-11-13T19:19:51.815Z,59.23
2022-11-13T19:22:37.849Z,59.48
2022-11-13T19:25:23.778Z,59.46
2022-11-13T19:28:09.733Z,59.71
2022-11-13T19:30:55.889Z,59.84
2022-11-13T19:33:42.099Z,60.51
2022-11-13T19:36:29.610Z,59.97
2022-11-13T19:39:16.609Z,60.00
2022-11-13T19:42:02.179Z,59.71
2022-11-13T19:44:48.897Z,59.84
2022-11-13T19:47:35.378Z,59.99
2022-11-13T19:50:21.579Z,59.69
2022-11-13T19:53:09.071Z,59.56
2022-11-13T19:55:56.067Z,59.55
2022-11-13T19:58:44.595Z,59.86
2022-11-13T20:01:32.292Z,59.55
2022-11-13T20:04:18.170Z,60.00
2022-11-13T20:07:04.044Z,59.44
2022-11-13T20:09:49.895Z,59.63
2022-11-13T20:12:35.377Z,59.46
2022-11-13T20:15:21.298Z,60.46
2022-11-13T20:18:06.968Z,60.43
2022-11-13T20:20:54.837Z,61.09
2022-11-13T20:23:41.616Z,61.23
2022-11-13T20:26:28.532Z,61.38
2022-11-13T20:29:14.332Z,61.43
2022-11-13T20:32:01.140Z,61.08
2022-11-13T20:34:46.662Z,61.34
2022-11-13T20:37:32.971Z,60.91
2022-11-13T20:40:18.609Z,61.59
2022-11-13T20:43:04.529Z,61.05
2022-11-13T20:45:50.813Z,61.06
2022-11-13T20:48:37.498Z,61.40
2022-11-13T20:51:26.370Z,61.59
2022-11-13T20:54:12.049Z,61.48
2022-11-13T20:56:58.129Z,61.46
2022-11-13T20:59:43.809Z,61.47
2022-11-13T21:02:31.807Z,61.40
2022-11-13T21:05:18.009Z,61.40
2022-11-13T21:08:04.057Z,61.46
2022-11-13T21:10:49.690Z,61.30
2022-11-13T21:13:35.607Z,61.65
2022-11-13T21:16:21.613Z,61.92
2022-11-13T21:19:08.092Z,62.64
2022-11-13T21:21:54.051Z,62.18
2022-11-13T21:24:39.852Z,62.25
2022-11-13T21:27:25.569Z,62.39
2022-11-13T21:30:11.649Z,61.93
2022-11-13T21:33:01.011Z,61.77
2022-11-13T21:35:46.652Z,61.83
2022-11-13T21:38:32.854Z,61.75
2022-11-13T21:41:27.537Z,61.53
2022-11-13T21:44:13.247Z,61.73
2022-11-13T21:46:59.094Z,62.06
2022-11-13T21:49:44.975Z,61.82
2022-11-13T21:52:30.862Z,62.55
2022-11-13T21:55:16.652Z,62.31
2022-11-13T21:58:02.128Z,62.44
2022-11-13T22:00:48.172Z,62.38
2022-11-13T22:03:34.327Z,62.12
2022-11-13T22:06:27.409Z,62.32
2022-11-13T22:09:15.728Z,62.43
2022-11-13T22:12:01.332Z,62.29
2022-11-13T22:14:46.928Z,61.79
2022-11-13T22:17:32.970Z,62.00
2022-11-13T22:20:18.961Z,62.64
2022-11-13T22:23:06.413Z,62.03
2022-11-13T22:25:57.058Z,61.50
2022-11-13T22:28:45.898Z,62.29
2022-11-13T22:31:33.057Z,62.49
2022-11-13T22:34:18.648Z,62.69
2022-11-13T22:37:04.612Z,62.40
2022-11-13T22:39:50.208Z,62.35
2022-11-13T22:42:35.976Z,62.66
2022-11-13T22:45:24.046Z,62.18
2022-11-13T22:48:11.530Z,62.50
2022-11-13T22:51:03.769Z,62.56
2022-11-13T22:53:52.810Z,62.55
2022-11-13T22:56:41.182Z,62.54
2022-11-13T22:59:26.855Z,62.97
2022-11-13T23:02:12.809Z,62.90
2022-11-13T23:04:58.488Z,62.61
2022-11-13T23:07:44.248Z,62.17
2022-11-13T23:10:30.210Z,62.49
2022-11-13T23:13:16.053Z,62.41
2022-11-13T23:16:02.327Z,62.00
2022-11-13T23:18:48.131Z,62.39
2022-11-13T23:21:33.891Z,62.44
2022-11-13T23:24:19.653Z,62.35
2022-11-13T23:27:05.209Z,62.35
2022-11-13T23:29:51.135Z,62.42
2022-11-13T23:32:37.052Z,62.39
2022-11-13T23:35:22.852Z,62.43
2022-11-13T23:38:09.219Z,62.12
2022-11-13T23:40:56.132Z,62.90
2022-11-13T23:46:47.414Z,62.68
2022-11-13T23:49:33.502Z,63.30
2022-11-13T23:52:19.410Z,63.61
2022-11-13T23:55:05.449Z,63.21
2022-11-13T23:58:02.890Z,63.28
